Time;durP1;ratioP1;P1;durP2;ratioP2;P2;SDS_P1;SDS_P2;PMS_P1;PMS_P2;Temp;Humidity;BMP_temperature;BMP_pressure;BME280_temperature;BME280_humidity;BME280_pressure;Samples;Min_cycle;Max_cycle;Signal;HPM_P1;HPM_P2
2023/09/29 05:13:15;;;;;;;;;;;;;;;7.60;100.00;99745.59;5755069;23;19988;-81
2023/09/29 05:15:40;;;;;;;;;;;;;;;7.64;100.00;99751.63;5013712;28;20021;-81
2023/09/29 05:18:06;;;;;;;;;;;;;;;7.64;100.00;99743.72;5012829;28;20024;-82
2023/09/29 05:20:31;;;;;;;;;;;;;;;7.64;100.00;99739.34;5013409;28;20394;-82
2023/09/29 05:22:56;;;;;;;;;;;;;;;7.66;100.00;99739.28;5013499;28;19961;-82
2023/09/29 05:25:21;;;;;;;;;;;;;;;7.66;100.00;99738.41;5012110;28;19925;-82
2023/09/29 05:27:47;;;;;;;;;;;;;;;7.66;100.00;99739.28;5012099;28;19929;-82
2023/09/29 05:30:12;;;;;;;;;;;;;;;7.68;100.00;99740.09;5012744;28;19918;-81
2023/09/29 05:32:38;;;;;;;;;;;;;;;7.69;100.00;99733.03;5012013;28;19929;-82
2023/09/29 05:35:03;;;;;;;;;;;;;;;7.68;100.00;99729.53;5027662;28;19921;-82
2023/09/29 05:37:30;;;;;;;;;;;;;;;7.71;100.00;99740.00;5011921;28;19929;-82
2023/09/29 05:39:55;;;;;;;;;;;;;;;7.73;100.00;99750.50;5011953;28;20372;-82
2023/09/29 05:42:21;;;;;;;;;;;;;;;7.69;100.00;99757.66;5011689;28;19933;-82
2023/09/29 05:44:46;;;;;;;;;;;;;;;7.70;100.00;99747.94;5007615;28;19917;-82
2023/09/29 05:47:12;;;;;;;;;;;;;;;7.68;100.00;99748.00;5013179;28;19918;-82
2023/09/29 05:49:37;;;;;;;;;;;;;;;7.67;100.00;99748.91;5011806;28;19947;-82
2023/09/29 05:52:02;;;;;;;;;;;;;;;7.68;100.00;99755.91;5027882;28;19921;-83
2023/09/29 05:54:27;;;;;;;;;;;;;;;7.66;100.00;99755.09;5011794;28;20003;-82
2023/09/29 05:56:53;;;;;;;;;;;;;;;7.69;100.00;99751.50;5010646;28;19918;-82
2023/09/29 05:59:18;;;;;;;;;;;;;;;7.71;100.00;99753.19;5011163;28;20012;-84
2023/09/29 06:01:43;;;;;;;;;;;;;;;7.71;100.00;99752.34;5011740;28;19920;-83
2023/09/29 06:04:08;;;;;;;;;;;;;;;7.71;100.00;99752.34;5011546;28;19992;-83
2023/09/29 06:06:34;;;;;;;;;;;;;;;7.71;100.00;99753.19;5011545;28;19921;-83
2023/09/29 06:08:59;;;;;;;;;;;;;;;7.70;100.00;99751.44;5011568;28;19953;-81
2023/09/29 06:11:24;;;;;;;;;;;;;;;7.72;100.00;99748.75;5012556;28;19972;-81
2023/09/29 06:13:50;;;;;;;;;;;;;;;7.75;100.00;99760.06;5011220;28;20444;-83
2023/09/29 06:16:15;;;;;;;;;;;;;;;7.76;100.00;99759.16;5012417;28;19924;-82
2023/09/29 06:18:40;;;;;;;;;;;;;;;7.78;100.00;99748.56;5012391;28;19956;-83
2023/09/29 06:21:05;;;;;;;;;;;;;;;7.74;100.00;99758.38;5011320;28;19985;-82
2023/09/29 06:23:31;;;;;;;;;;;;;;;7.79;100.00;99755.59;5011207;28;20000;-82
2023/09/29 06:25:57;;;;;;;;;;;;;;;7.76;100.00;99753.91;5012446;28;19925;-82
2023/09/29 06:28:22;;;;;;;;;;;;;;;7.75;100.00;99762.72;5009732;28;19925;-82
2023/09/29 06:30:48;;;;;;;;;;;;;;;7.77;100.00;99763.53;5012340;28;19918;-83
2023/09/29 06:33:13;;;;;;;;;;;;;;;7.76;100.00;99763.59;5010746;28;19920;-82
2023/09/29 06:35:40;;;;;;;;;;;;;;;7.79;100.00;99768.78;5010945;28;19928;-82
2023/09/29 06:38:06;;;;;;;;;;;;;;;7.74;100.00;99758.38;5011129;28;20392;-82
2023/09/29 06:40:31;;;;;;;;;;;;;;;7.78;100.00;99753.84;5010788;28;19913;-82
2023/09/29 06:42:56;;;;;;;;;;;;;;;7.75;100.00;99749.53;5009758;28;19923;-82
2023/09/29 06:45:22;;;;;;;;;;;;;;;7.79;100.00;99764.34;5010899;28;20463;-82
2023/09/29 06:47:47;;;;;;;;;;;;;;;7.79;100.00;99769.63;5012320;28;19921;-82
2023/09/29 06:50:12;;;;;;;;;;;;;;;7.78;100.00;99773.16;5012312;28;19917;-82
2023/09/29 06:52:38;;;;;;;;;;;;;;;7.79;100.00;99774.91;5012202;28;19979;-83
2023/09/29 06:55:03;;;;;;;;;;;;;;;7.80;100.00;99776.63;5012087;28;19917;-87
2023/09/29 06:57:28;;;;;;;;;;;;;;;7.77;100.00;99779.38;5009492;28;20004;-83
2023/09/29 06:59:54;;;;;;;;;;;;;;;7.79;100.00;99779.31;5012536;28;19928;-83
2023/09/29 07:02:19;;;;;;;;;;;;;;;7.78;100.00;99781.06;5011287;28;20332;-83
2023/09/29 07:04:44;;;;;;;;;;;;;;;7.79;100.00;99779.31;5012051;28;19921;-83
2023/09/29 07:07:10;;;;;;;;;;;;;;;7.81;100.00;99790.69;5011342;28;19918;-83
2023/09/29 07:09:35;;;;;;;;;;;;;;;7.81;100.00;99799.44;5011983;28;19924;-83
2023/09/29 07:12:01;;;;;;;;;;;;;;;7.77;100.00;99797.84;5010864;28;19924;-83
2023/09/29 07:14:27;;;;;;;;;;;;;;;7.76;100.00;99803.16;5011847;28;20331;-82
2023/09/29 07:45:49;;;;;;;;;;;;;;;7.76;100.00;99809.28;4995599;28;20386;-87
2023/09/29 07:48:16;;;;;;;;;;;;;;;7.76;100.00;99813.72;4995883;28;20012;-85
2023/09/29 07:50:41;;;;;;;;;;;;;;;7.78;100.00;99806.59;5010448;28;20288;-85
2023/09/29 07:53:06;;;;;;;;;;;;;;;7.80;100.00;99816.22;4995627;28;20024;-84
2023/09/29 07:55:31;;;;;;;;;;;;;;;7.82;100.00;99809.09;4994262;28;19925;-85
2023/09/29 07:57:57;;;;;;;;;;;;;;;7.82;100.00;99814.38;4992832;28;19933;-85
2023/09/29 08:00:22;;;;;;;;;;;;;;;7.83;100.00;99812.59;4994367;28;19971;-85
2023/09/29 08:02:48;;;;;;;;;;;;;;;7.82;100.00;99822.28;4995383;28;19928;-86
2023/09/29 08:05:13;;;;;;;;;;;;;;;7.87;100.00;99816.03;4995448;28;19939;-85
2023/09/29 08:07:39;;;;;;;;;;;;;;;7.87;100.00;99816.03;4994061;28;19921;-85
2023/09/29 08:10:06;;;;;;;;;;;;;;;7.91;100.00;99822.91;5009647;28;19925;-85
2023/09/29 08:12:31;;;;;;;;;;;;;;;7.91;100.00;99825.53;4992598;28;20279;-86
2023/09/29 08:14:57;;;;;;;;;;;;;;;7.90;100.00;99826.47;4993905;28;19925;-85
2023/09/29 08:17:22;;;;;;;;;;;;;;;7.92;100.00;99827.28;4993918;28;19925;-85
2023/09/29 08:19:48;;;;;;;;;;;;;;;7.95;100.00;99822.78;4993838;28;19925;-85
2023/09/29 08:22:13;;;;;;;;;;;;;;;7.97;100.00;99835.91;4993890;28;19924;-86
2023/09/29 08:24:38;;;;;;;;;;;;;;;7.94;100.00;99833.38;4993824;28;20370;-85
2023/09/29 08:27:04;;;;;;;;;;;;;;;7.98;100.00;99840.28;4993438;28;19922;-85
2023/09/29 08:29:29;;;;;;;;;;;;;;;7.93;100.00;99829.88;4992976;28;19918;-87
2023/09/29 08:32:00;;;;;;;;;;;;;;;7.96;100.00;99829.78;4993582;28;20009;-85
2023/09/29 08:34:34;;;;;;;;;;;;;;;7.98;100.00;99827.09;4993528;28;19918;-85
2023/09/29 08:36:59;;;;;;;;;;;;;;;8.02;100.00;99825.22;4992933;28;19917;-86
2023/09/29 08:39:25;;;;;;;;;;;;;;;7.97;100.00;99834.13;4994595;28;20320;-85
2023/09/29 08:41:58;;;;;;;;;;;;;;;7.98;100.00;99845.56;4995007;28;19921;-85
2023/09/29 08:44:25;;;;;;;;;;;;;;;8.04;100.00;99850.66;5009504;28;20015;-85
2023/09/29 08:46:52;;;;;;;;;;;;;;;8.08;100.00;99852.28;5032611;28;19921;-85
2023/09/29 08:49:18;;;;;;;;;;;;;;;8.08;100.00;99857.53;5033213;28;19921;-85
2023/09/29 08:51:47;;;;;;;;;;;;;;;8.09;100.00;99859.28;5033860;28;19963;-84
2023/09/29 08:54:13;;;;;;;;;;;;;;;8.11;100.00;99856.59;5033818;28;20003;-85
2023/09/29 08:56:39;;;;;;;;;;;;;;;8.11;100.00;99861.88;5033953;28;20016;-84
2023/09/29 08:59:04;;;;;;;;;;;;;;;8.14;100.00;99860.00;5028826;28;19971;-84
2023/09/29 09:01:30;;;;;;;;;;;;;;;8.13;100.00;99860.91;5032512;28;19971;-84
2023/09/29 09:03:55;;;;;;;;;;;;;;;8.13;100.00;99866.19;5032283;28;20368;-85
2023/09/29 09:06:21;;;;;;;;;;;;;;;8.24;100.00;99865.84;5033710;28;19967;-85
2023/09/29 09:08:48;;;;;;;;;;;;;;;8.20;100.00;99874.78;5033219;28;20356;-85
2023/09/29 09:11:13;;;;;;;;;;;;;;;8.19;100.00;99871.25;5032211;28;20373;-85
2023/09/29 09:13:38;;;;;;;;;;;;;;;8.23;100.00;99885.22;5024779;28;19921;-85
2023/09/29 09:16:04;;;;;;;;;;;;;;;8.21;100.00;99894.13;5033536;28;19921;-85
2023/09/29 09:18:29;;;;;;;;;;;;;;;8.22;100.00;99898.47;5033442;28;19924;-85
2023/09/29 09:20:55;;;;;;;;;;;;;;;8.24;100.00;99889.59;5033505;28;20011;-85
2023/09/29 09:23:20;;;;;;;;;;;;;;;8.23;100.00;99900.22;5032562;28;19924;-85
2023/09/29 09:25:46;;;;;;;;;;;;;;;8.23;100.00;99905.50;5031910;28;19918;-85
2023/09/29 09:28:18;;;;;;;;;;;;;;;8.23;100.00;99897.56;5031982;28;20029;-85
2023/09/29 09:30:47;;;;;;;;;;;;;;;8.25;100.00;99906.28;5032722;28;19927;-85
2023/09/29 09:33:16;;;;;;;;;;;;;;;8.24;100.00;99905.44;5032670;28;20565;-85
2023/09/29 09:35:42;;;;;;;;;;;;;;;8.25;100.00;99909.81;5031028;28;20414;-85
2023/09/29 09:38:07;;;;;;;;;;;;;;;8.24;100.00;99915.16;5033060;28;19972;-85
2023/09/29 09:40:33;;;;;;;;;;;;;;;8.22;100.00;99933.66;5033144;28;19921;-84
2023/09/29 09:43:03;;;;;;;;;;;;;;;8.25;100.00;99933.56;5031422;28;20004;-84
2023/09/29 09:45:34;;;;;;;;;;;;;;;8.26;100.00;99945.84;5031512;28;19921;-85
2023/09/29 09:48:02;;;;;;;;;;;;;;;8.25;100.00;99945.88;5032615;28;19917;-85
2023/09/29 09:50:30;;;;;;;;;;;;;;;8.24;100.00;99946.81;5032753;28;20426;-85
2023/09/29 09:52:56;;;;;;;;;;;;;;;8.25;100.00;99948.53;5031369;28;19925;-85
2023/09/29 09:55:30;;;;;;;;;;;;;;;8.28;100.00;99943.16;5032774;28;19932;-84
2023/09/29 09:57:56;;;;;;;;;;;;;;;8.28;100.00;99945.81;5029547;28;19925;-84
2023/09/29 10:00:24;;;;;;;;;;;;;;;8.23;100.00;99951.22;5032497;28;19917;-84
2023/09/29 10:02:56;;;;;;;;;;;;;;;8.23;100.00;99953.00;5031254;28;19917;-84
2023/09/29 10:05:30;;;;;;;;;;;;;;;8.21;100.00;99955.69;5030756;28;20016;-84
2023/09/29 10:07:57;;;;;;;;;;;;;;;8.23;100.00;99958.28;5033461;28;19923;-84
2023/09/29 10:10:34;;;;;;;;;;;;;;;8.21;100.00;99963.59;5032351;28;19924;-84
2023/09/29 10:13:03;;;;;;;;;;;;;;;8.20;100.00;99956.63;5029621;28;20424;-84
2023/09/29 10:15:29;;;;;;;;;;;;;;;8.24;100.00;99967.94;5032328;28;19956;-84
2023/09/29 10:18:21;;;;;;;;;;;;;;;8.22;100.00;99960.06;5031029;28;19917;-84
2023/09/29 10:20:54;;;;;;;;;;;;;;;8.22;100.00;99972.38;5027770;28;20020;-85
2023/09/29 10:23:19;;;;;;;;;;;;;;;8.24;100.00;99968.78;5032279;28;20004;-85
2023/09/29 10:25:55;;;;;;;;;;;;;;;8.23;100.00;99977.63;5031138;28;20012;-84
2023/09/29 10:28:29;;;;;;;;;;;;;;;8.22;100.00;99970.63;5030740;28;19917;-84
2023/09/29 10:31:05;;;;;;;;;;;;;;;8.18;100.00;99969.88;5032226;28;20288;-84
2023/09/29 10:33:30;;;;;;;;;;;;;;;8.19;100.00;99971.56;5047401;28;19917;-84
2023/09/29 10:35:58;;;;;;;;;;;;;;;8.21;100.00;99979.44;5031560;28;20015;-84
2023/09/29 10:38:23;;;;;;;;;;;;;;;8.24;100.00;99974.06;5032140;28;19960;-84
2023/09/29 10:40:49;;;;;;;;;;;;;;;8.23;100.00;99987.31;5032020;28;19921;-85
2023/09/29 10:43:18;;;;;;;;;;;;;;;8.22;100.00;99996.13;5029323;28;19960;-84
2023/09/29 10:45:44;;;;;;;;;;;;;;;8.25;100.00;99993.41;5032090;28;19921;-88
2023/09/29 10:48:10;;;;;;;;;;;;;;;8.21;100.00;100005.84;5031821;28;19921;-85
2023/09/29 10:50:43;;;;;;;;;;;;;;;8.22;100.00;99996.13;5032104;28;19917;-85
2023/09/29 10:53:09;;;;;;;;;;;;;;;8.23;100.00;99997.88;5031290;28;19975;-85
2023/09/29 10:55:36;;;;;;;;;;;;;;;8.24;100.00;99999.63;5032060;28;20268;-84
2023/09/29 10:58:03;;;;;;;;;;;;;;;8.26;100.00;100009.19;5030441;28;19917;-85
2023/09/29 11:00:28;;;;;;;;;;;;;;;8.23;100.00;100013.72;5030036;28;19917;-84
2023/09/29 11:02:55;;;;;;;;;;;;;;;8.23;100.00;100009.28;5031912;28;19917;-84
2023/09/29 11:05:20;;;;;;;;;;;;;;;8.29;100.00;100013.53;5031779;28;19971;-83
2023/09/29 11:07:47;;;;;;;;;;;;;;;8.26;100.00;100009.19;5032196;28;19917;-88
2023/09/29 11:10:12;;;;;;;;;;;;;;;8.25;100.00;100012.78;5031676;28;20288;-85
2023/09/29 11:12:40;;;;;;;;;;;;;;;8.30;100.00;100018.78;5030589;28;19921;-85
2023/09/29 11:15:07;;;;;;;;;;;;;;;8.27;100.00;100015.38;5030511;28;19917;-85
2023/09/29 11:17:46;;;;;;;;;;;;;;;8.29;100.00;100003.84;5032582;28;20447;-84
2023/09/29 11:20:16;;;;;;;;;;;;;;;8.30;100.00;100010.00;5034147;28;19921;-84
2023/09/29 11:22:55;;;;;;;;;;;;;;;8.30;100.00;100016.13;5040382;23;19936;-86
2023/09/29 11:25:20;;;;;;;;;;;;;;;8.30;100.00;100010.00;5035529;28;19917;-86
2023/09/29 11:27:50;;;;;;;;;;;;;;;8.29;100.00;100006.47;5032877;28;19967;-84
2023/09/29 11:30:15;;;;;;;;;;;;;;;8.30;100.00;100010.00;5035369;28;19925;-86
2023/09/29 11:32:41;;;;;;;;;;;;;;;8.30;100.00;100012.63;5050823;28;19921;-84
2023/09/29 11:35:13;;;;;;;;;;;;;;;8.31;100.00;100017.00;5033945;28;19923;-84
2023/09/29 11:37:38;;;;;;;;;;;;;;;8.28;100.00;100015.31;5033986;28;20311;-84
2023/09/29 11:40:11;;;;;;;;;;;;;;;8.34;100.00;100027.47;5035148;28;19924;-87
2023/09/29 11:42:36;;;;;;;;;;;;;;;8.35;100.00;100023.91;5049231;28;20035;-84
2023/09/29 11:45:07;;;;;;;;;;;;;;;8.35;100.00;100022.13;5035353;28;20340;-84
2023/09/29 11:47:33;;;;;;;;;;;;;;;8.35;100.00;100026.56;5033275;28;20023;-84
2023/09/29 11:49:58;;;;;;;;;;;;;;;8.34;100.00;100032.75;5033573;28;20004;-84
2023/09/29 11:52:23;;;;;;;;;;;;;;;8.31;100.00;100032.81;5034926;28;20380;-84
2023/09/29 11:54:49;;;;;;;;;;;;;;;8.33;100.00;100026.59;5034738;28;19917;-85
2023/09/29 11:57:14;;;;;;;;;;;;;;;8.32;100.00;100019.59;5050145;28;19921;-84
2023/09/29 11:59:40;;;;;;;;;;;;;;;8.31;100.00;100020.50;5033684;28;20291;-84
2023/09/29 12:02:05;;;;;;;;;;;;;;;8.31;100.00;100025.78;5034680;28;19917;-84
2023/09/29 12:04:30;;;;;;;;;;;;;;;8.36;100.00;100025.66;5034953;28;19940;-84
2023/09/29 12:06:55;;;;;;;;;;;;;;;8.35;100.00;100019.50;5034802;28;20403;-86
2023/09/29 12:09:22;;;;;;;;;;;;;;;8.35;100.00;100016.84;5034677;28;20284;-84
2023/09/29 12:11:47;;;;;;;;;;;;;;;8.35;100.00;100018.63;5033706;28;20273;-84
2023/09/29 12:14:13;;;;;;;;;;;;;;;8.35;100.00;100016.00;5032498;28;19940;-86
2023/09/29 12:16:38;;;;;;;;;;;;;;;8.39;100.00;100020.25;5034352;28;19921;-84
2023/09/29 12:19:04;;;;;;;;;;;;;;;8.40;100.00;100022.00;5034706;28;20776;-84
2023/09/29 12:21:30;;;;;;;;;;;;;;;8.36;100.00;100020.38;5032926;28;20303;-85
2023/09/29 12:23:56;;;;;;;;;;;;;;;8.34;100.00;100027.47;5034555;28;19917;-85
2023/09/29 12:26:21;;;;;;;;;;;;;;;8.37;100.00;100022.09;5033190;28;19917;-86
2023/09/29 12:28:47;;;;;;;;;;;;;;;8.37;100.00;100022.09;5026799;28;20360;-85
2023/09/29 12:31:16;;;;;;;;;;;;;;;8.34;100.00;100032.75;5032720;28;20327;-86
2023/09/29 12:33:41;;;;;;;;;;;;;;;8.34;100.00;100028.34;5049625;28;19924;-84
2023/09/29 12:36:08;;;;;;;;;;;;;;;8.31;100.00;100036.34;5028392;28;19921;-85
2023/09/29 12:38:33;;;;;;;;;;;;;;;8.37;100.00;100032.66;5049559;28;20269;-84
2023/09/29 12:40:58;;;;;;;;;;;;;;;8.37;100.00;100040.56;5034401;28;19923;-89
2023/09/29 12:43:26;;;;;;;;;;;;;;;8.37;100.00;100030.88;5032843;28;20019;-87
2023/09/29 12:45:51;;;;;;;;;;;;;;;8.36;100.00;100030.94;5033968;28;19917;-85
2023/09/29 12:48:16;;;;;;;;;;;;;;;8.36;100.00;100031.78;5033014;28;20257;-85
2023/09/29 12:50:43;;;;;;;;;;;;;;;8.36;100.00;100026.53;5033905;28;20295;-85
2023/09/29 12:53:08;;;;;;;;;;;;;;;8.42;100.00;100022.81;5033872;28;20403;-86
2023/09/29 12:55:33;;;;;;;;;;;;;;;8.43;100.00;100027.22;5032537;28;19917;-84
2023/09/29 12:58:05;;;;;;;;;;;;;;;8.41;100.00;100041.34;5032529;28;19917;-85
2023/09/29 13:00:34;;;;;;;;;;;;;;;8.41;100.00;100033.41;5033461;28;19917;-85
2023/09/29 13:03:04;;;;;;;;;;;;;;;8.42;100.00;100029.88;5033269;28;19928;-85
2023/09/29 13:05:30;;;;;;;;;;;;;;;8.41;100.00;100033.41;5033242;28;19921;-85
2023/09/29 13:07:56;;;;;;;;;;;;;;;8.44;100.00;100036.00;5033691;28;20395;-84
2023/09/29 13:10:22;;;;;;;;;;;;;;;8.42;100.00;100021.97;5033889;28;20296;-85
2023/09/29 13:12:54;;;;;;;;;;;;;;;8.45;100.00;100019.25;5030242;28;19967;-85
2023/09/29 13:15:21;;;;;;;;;;;;;;;8.45;100.00;100016.63;5032704;28;20008;-85
2023/09/29 13:17:46;;;;;;;;;;;;;;;8.42;100.00;100025.44;5033254;28;19917;-85
2023/09/29 13:20:12;;;;;;;;;;;;;;;8.41;100.00;100034.31;5033308;28;20321;-84
2023/09/29 13:22:38;;;;;;;;;;;;;;;8.43;100.00;100036.91;5047676;28;19929;-85
2023/09/29 13:25:04;;;;;;;;;;;;;;;8.40;100.00;100035.19;5033326;28;19917;-87
2023/09/29 13:27:32;;;;;;;;;;;;;;;8.39;100.00;100041.38;5031967;28;19920;-85
2023/09/29 13:29:57;;;;;;;;;;;;;;;8.40;100.00;100032.56;5033044;28;19924;-85
2023/09/29 13:32:22;;;;;;;;;;;;;;;8.43;100.00;100042.19;5031782;28;20312;-85
2023/09/29 13:34:48;;;;;;;;;;;;;;;8.42;100.00;100043.94;5031790;28;19927;-85
2023/09/29 13:37:19;;;;;;;;;;;;;;;8.42;100.00;100041.28;5031571;28;19972;-85
2023/09/29 13:39:45;;;;;;;;;;;;;;;8.41;100.00;100047.50;5030768;28;19928;-84
2023/09/29 13:42:10;;;;;;;;;;;;;;;8.42;100.00;100046.56;5032747;28;19917;-84
2023/09/29 13:44:35;;;;;;;;;;;;;;;8.45;100.00;100046.53;5046904;28;20315;-84
2023/09/29 13:47:01;;;;;;;;;;;;;;;8.45;100.00;100050.94;5031671;28;19955;-85
2023/09/29 13:49:26;;;;;;;;;;;;;;;8.45;100.00;100045.66;5031565;28;20004;-85
2023/09/29 13:51:53;;;;;;;;;;;;;;;8.44;100.00;100050.09;5032928;28;20011;-85
2023/09/29 13:54:18;;;;;;;;;;;;;;;8.45;100.00;100051.81;5032620;28;19975;-85
2023/09/29 13:56:45;;;;;;;;;;;;;;;8.47;100.00;100060.56;5032626;28;20356;-85
2023/09/29 13:59:10;;;;;;;;;;;;;;;8.44;100.00;100059.75;5029665;28;20311;-85
2023/09/29 14:01:35;;;;;;;;;;;;;;;8.44;100.00;100065.94;5048046;28;19921;-85
2023/09/29 14:04:01;;;;;;;;;;;;;;;8.45;100.00;100062.38;5032709;28;19917;-85
2023/09/29 14:06:28;;;;;;;;;;;;;;;8.45;100.00;100067.66;5032439;28;19917;-85
2023/09/29 14:08:53;;;;;;;;;;;;;;;8.44;100.00;100071.22;5032609;28;19928;-85
2023/09/29 14:11:19;;;;;;;;;;;;;;;8.44;100.00;100073.84;5032545;28;19917;-85
2023/09/29 14:13:45;;;;;;;;;;;;;;;8.44;100.00;100070.31;5030014;28;19975;-85
2023/09/29 14:16:10;;;;;;;;;;;;;;;8.43;100.00;100074.75;5032306;28;20343;-85
2023/09/29 14:18:35;;;;;;;;;;;;;;;8.43;100.00;100080.03;5047630;28;19921;-84
2023/09/29 14:21:01;;;;;;;;;;;;;;;8.41;100.00;100094.16;5032404;28;20364;-85
2023/09/29 14:23:27;;;;;;;;;;;;;;;8.46;100.00;100090.50;5032004;28;19921;-84
2023/09/29 14:25:52;;;;;;;;;;;;;;;8.43;100.00;100102.91;5031551;28;19956;-85
2023/09/29 14:28:17;;;;;;;;;;;;;;;8.44;100.00;100108.19;5030825;28;19980;-84
2023/09/29 14:30:42;;;;;;;;;;;;;;;8.45;100.00;100109.03;5030898;28;19924;-85
2023/09/29 14:33:08;;;;;;;;;;;;;;;8.42;100.00;100117.03;5030887;28;20375;-85
2023/09/29 14:35:34;;;;;;;;;;;;;;;8.43;100.00;100106.44;5032079;28;19917;-85
2023/09/29 14:37:59;;;;;;;;;;;;;;;8.45;100.00;100115.19;5030843;28;20011;-85
2023/09/29 14:40:25;;;;;;;;;;;;;;;8.45;100.00;100116.97;5030667;28;20399;-85
2023/09/29 14:42:50;;;;;;;;;;;;;;;8.43;100.00;100117.00;5030733;28;19971;-85
2023/09/29 14:45:15;;;;;;;;;;;;;;;8.42;100.00;100115.22;5032097;28;20414;-85
2023/09/29 14:47:41;;;;;;;;;;;;;;;8.42;100.00;100114.38;5030743;28;19924;-84
2023/09/29 14:50:06;;;;;;;;;;;;;;;8.42;100.00;100115.22;5030772;28;19975;-85
2023/09/29 14:52:32;;;;;;;;;;;;;;;8.44;100.00;100125.78;5035896;28;19924;-84
2023/09/29 14:54:58;;;;;;;;;;;;;;;8.45;100.00;100131.03;5051622;28;19921;-84
2023/09/29 14:57:24;;;;;;;;;;;;;;;8.49;100.00;100126.53;5034669;28;19921;-84
2023/09/29 14:59:49;;;;;;;;;;;;;;;8.50;100.00;100133.53;5036028;28;19932;-84
2023/09/29 15:02:14;;;;;;;;;;;;;;;8.50;100.00;100126.50;5035931;28;19921;-84
2023/09/29 15:04:40;;;;;;;;;;;;;;;8.50;100.00;100123.84;5035782;28;19917;-84
2023/09/29 15:07:05;;;;;;;;;;;;;;;8.52;100.00;100123.78;5034652;28;19924;-84
2023/09/29 15:09:30;;;;;;;;;;;;;;;8.52;100.00;100116.75;5034459;28;20004;-84
2023/09/29 15:11:56;;;;;;;;;;;;;;;8.47;100.00;100118.66;5034536;28;19988;-84
2023/09/29 15:14:21;;;;;;;;;;;;;;;8.49;100.00;100115.97;5033183;28;19925;-84
2023/09/29 15:16:46;;;;;;;;;;;;;;;8.50;100.00;100122.97;5035723;28;20372;-84
2023/09/29 15:19:15;;;;;;;;;;;;;;;8.51;100.00;100112.38;5035703;28;20287;-84
2023/09/29 15:21:41;;;;;;;;;;;;;;;8.49;100.00;100121.25;5035474;28;20261;-84
2023/09/29 15:24:07;;;;;;;;;;;;;;;8.53;100.00;100126.38;5034819;28;20016;-83
2023/09/29 15:26:32;;;;;;;;;;;;;;;8.57;100.00;100124.53;5035376;28;20391;-87
2023/09/29 15:28:57;;;;;;;;;;;;;;;8.54;100.00;100125.47;5034495;28;20466;-82
2023/09/29 15:31:25;;;;;;;;;;;;;;;8.54;100.00;100129.91;5034088;28;19913;-84
2023/09/29 15:33:50;;;;;;;;;;;;;;;8.55;100.00;100118.41;5035388;28;19925;-82
2023/09/29 15:36:16;;;;;;;;;;;;;;;8.54;100.00;100125.47;5035310;28;19983;-82
2023/09/29 15:41:56;;;;;;;;;;;;;;;8.57;100.00;100121.00;5019028;28;19968;-85
2023/09/29 15:44:21;;;;;;;;;;;;;;;7.74;100.00;100127.66;5033926;28;20391;-84
2023/09/29 15:46:46;;;;;;;;;;;;;;;7.03;100.00;100131.97;5033805;28;20280;-84
2023/09/29 15:49:12;;;;;;;;;;;;;;;6.79;100.00;100129.91;5033832;28;19979;-84
2023/09/29 15:54:41;;;;;;;;;;;;;;;6.46;100.00;100133.22;5113880;23;19967;-84
2023/09/29 15:57:06;;;;;;;;;;;;;;;6.34;100.00;100144.84;5034862;28;20352;-83
2023/09/29 15:59:32;;;;;;;;;;;;;;;6.22;100.00;100154.75;5032161;28;20478;-83
2023/09/29 16:01:57;;;;;;;;;;;;;;;6.19;100.00;100155.69;5032626;28;19917;-84
2023/09/29 16:04:22;;;;;;;;;;;;;;;6.16;100.00;100158.38;5034371;28;20288;-84
2023/09/29 16:06:47;;;;;;;;;;;;;;;6.23;100.00;100160.00;5033470;28;19917;-84
2023/09/29 16:09:13;;;;;;;;;;;;;;;6.05;100.00;100160.31;5034562;28;20260;-85
2023/09/29 16:11:38;;;;;;;;;;;;;;;6.05;100.00;100158.56;5034554;28;19921;-83
2023/09/29 16:17:13;;;;;;;;;;;;;;;6.02;100.00;100176.19;4991989;28;20018;-86
2023/09/29 16:19:39;;;;;;;;;;;;;;;5.86;100.00;100181.66;5028878;28;19921;-84
2023/09/29 16:22:05;;;;;;;;;;;;;;;5.89;100.00;100186.00;5034360;28;19920;-86
2023/09/29 16:24:31;;;;;;;;;;;;;;;5.88;100.00;100186.91;5033021;28;19918;-83
2023/09/29 16:26:56;;;;;;;;;;;;;;;5.85;100.00;100193.06;5032771;28;19959;-84
2023/09/29 16:29:23;;;;;;;;;;;;;;;5.77;100.00;100189.72;5033309;28;19924;-84
2023/09/29 16:31:48;;;;;;;;;;;;;;;5.74;100.00;100189.75;5034117;28;20007;-84
2023/09/29 16:34:13;;;;;;;;;;;;;;;5.74;100.00;100193.25;5032982;28;20015;-84
2023/09/29 16:36:39;;;;;;;;;;;;;;;5.74;100.00;100188.00;5033868;28;20032;-84
2023/09/29 16:39:04;;;;;;;;;;;;;;;5.74;100.00;100193.25;5034057;28;19944;-83
2023/09/29 16:41:30;;;;;;;;;;;;;;;5.74;100.00;100200.28;5054856;23;19917;-84
2023/09/29 16:43:56;;;;;;;;;;;;;;;5.62;100.00;100202.22;4992599;28;20249;-84
2023/09/29 16:46:21;;;;;;;;;;;;;;;5.66;100.00;100202.16;4993351;28;19918;-85
2023/09/29 16:48:50;;;;;;;;;;;;;;;5.63;100.00;100210.97;4994402;28;19986;-88
2023/09/29 16:51:16;;;;;;;;;;;;;;;5.68;100.00;100210.91;4994547;28;19929;-84
2023/09/29 16:53:42;;;;;;;;;;;;;;;5.57;100.00;100204.06;4994438;28;19918;-84
2023/09/29 16:56:07;;;;;;;;;;;;;;;5.58;100.00;100207.53;4994443;28;19925;-83
2023/09/29 16:58:33;;;;;;;;;;;;;;;5.61;100.00;100211.00;4993240;28;20312;-88
2023/09/29 17:00:59;;;;;;;;;;;;;;;5.52;100.00;100195.38;4993248;28;20341;-83
2023/09/29 17:03:25;;;;;;;;;;;;;;;5.57;100.00;100193.53;4994721;28;19918;-83
2023/09/29 17:05:53;;;;;;;;;;;;;;;5.61;100.00;100200.47;4991506;28;19961;-91
2023/09/29 17:08:18;;;;;;;;;;;;;;;5.53;100.00;100199.72;4993573;28;20360;-89
2023/09/29 17:10:43;;;;;;;;;;;;;;;5.56;100.00;100199.69;4994171;28;20005;-85
2023/09/29 17:13:08;;;;;;;;;;;;;;;5.48;100.00;100213.84;4990287;28;19988;-87
2023/09/29 17:15:37;;;;;;;;;;;;;;;5.49;100.00;100220.81;4991495;28;19930;-85
2023/09/29 17:18:03;;;;;;;;;;;;;;;5.50;100.00;100228.69;4992291;28;20404;-83
2023/09/29 17:20:28;;;;;;;;;;;;;;;5.53;100.00;100220.75;4992774;28;20013;-85
2023/09/29 17:22:53;;;;;;;;;;;;;;;5.45;100.00;100230.53;4992690;28;19924;-84
2023/09/29 17:25:19;;;;;;;;;;;;;;;5.48;100.00;100230.47;4992655;28;19921;-83
2023/09/29 17:27:44;;;;;;;;;;;;;;;5.59;100.00;100230.31;4991211;28;20469;-85
2023/09/29 17:30:15;;;;;;;;;;;;;;;5.58;100.00;100229.44;4992631;28;20004;-90
2023/09/29 17:32:40;;;;;;;;;;;;;;;5.50;100.00;100227.84;4993939;28;19922;-83
2023/09/29 17:35:06;;;;;;;;;;;;;;;5.56;100.00;100235.63;4993546;28;20009;-84
2023/09/29 17:37:31;;;;;;;;;;;;;;;5.50;100.00;100236.56;5008566;28;19926;-84
2023/09/29 17:39:57;;;;;;;;;;;;;;;5.39;100.00;100242.00;4992441;28;20369;-83
2023/09/29 17:42:22;;;;;;;;;;;;;;;5.35;100.00;100250.81;4992354;28;19922;-84
2023/09/29 17:44:47;;;;;;;;;;;;;;;5.37;100.00;100238.50;4992794;28;19968;-84
2023/09/29 17:47:13;;;;;;;;;;;;;;;5.41;100.00;100242.84;4991719;28;19945;-83
2023/09/29 17:49:38;;;;;;;;;;;;;;;5.39;100.00;100238.50;4992850;28;19922;-83
2023/09/29 17:52:03;;;;;;;;;;;;;;;5.49;100.00;100247.09;5006317;28;19926;-83
2023/09/29 17:54:28;;;;;;;;;;;;;;;5.74;100.00;100244.97;4993275;28;19922;-83
2023/09/29 17:56:54;;;;;;;;;;;;;;;6.20;100.00;100254.78;4992394;28;19926;-86
2023/09/29 17:59:19;;;;;;;;;;;;;;;6.47;100.00;100268.34;4992195;28;19965;-84
2023/09/29 18:01:44;;;;;;;;;;;;;;;6.66;100.00;100260.97;4991746;28;19920;-83
2023/09/29 18:04:10;;;;;;;;;;;;;;;6.81;100.00;100259.78;4991567;28;19926;-85
2023/09/29 18:07:43;;;;;;;;;;;;;;;6.85;100.00;100264.13;4993149;28;20266;-80
2023/09/29 18:09:44;;;;;;;;;;;;;;;7.02;100.00;100275.19;4988902;28;20281;-84
2023/09/29 18:12:09;;;;;;;;;;;;;;;7.07;100.00;100278.59;4993097;28;19917;-82
2023/09/29 18:14:35;;;;;;;;;;;;;;;7.16;100.00;100281.94;4991626;28;19917;-83
2023/09/29 18:17:00;;;;;;;;;;;;;;;7.20;100.00;100296.78;4991216;28;19992;-83
2023/09/29 18:19:25;;;;;;;;;;;;;;;7.25;100.00;100297.56;4993039;28;19922;-83
2023/09/29 18:21:51;;;;;;;;;;;;;;;7.32;100.00;100308.81;4991573;28;19928;-86
2023/09/29 18:24:16;;;;;;;;;;;;;;;7.35;100.00;100311.41;4991779;28;19917;-86
2023/09/29 18:26:41;;;;;;;;;;;;;;;7.36;100.00;100318.41;4990930;28;20365;-83